createdAt,value
2023-04-14T00:00:00.390Z,8.74
2023-04-14T00:02:27.520Z,8.68
2023-04-14T00:04:55.127Z,8.47
2023-04-14T00:07:22.370Z,8.54
2023-04-14T00:09:49.629Z,8.52
2023-04-14T00:12:16.674Z,8.51
2023-04-14T00:14:43.727Z,8.54
2023-04-14T00:17:11.456Z,8.43
2023-04-14T00:19:38.668Z,8.48
2023-04-14T00:22:05.757Z,8.38
2023-04-14T00:24:32.819Z,8.46
2023-04-14T00:26:59.896Z,8.56
2023-04-14T00:29:27.014Z,8.62
2023-04-14T00:31:54.236Z,8.57
2023-04-14T00:34:21.319Z,8.42
2023-04-14T00:36:48.340Z,8.44
2023-04-14T00:39:15.567Z,8.50
2023-04-14T00:41:43.361Z,8.34
2023-04-14T00:44:10.546Z,8.34
2023-04-14T00:46:37.749Z,8.25
2023-04-14T00:49:05.099Z,8.31
2023-04-14T00:51:33.803Z,8.40
2023-04-14T00:54:02.903Z,8.26
2023-04-14T00:56:31.385Z,8.34
2023-04-14T00:59:01.477Z,8.35
2023-04-14T01:01:29.505Z,8.48
2023-04-14T01:03:57.786Z,8.41
2023-04-14T01:06:24.910Z,8.45
2023-04-14T01:08:51.954Z,8.47
2023-04-14T01:11:18.959Z,8.51
2023-04-14T01:13:53.896Z,8.67
2023-04-14T01:16:28.713Z,8.49
2023-04-14T01:19:01.117Z,8.54
2023-04-14T01:21:35.519Z,8.56
2023-04-14T01:24:26.189Z,8.53
2023-04-14T01:27:02.960Z,8.49
2023-04-14T01:29:49.232Z,8.49
2023-04-14T01:32:20.103Z,8.52
2023-04-14T01:34:50.199Z,8.48
2023-04-14T01:37:32.120Z,8.49
2023-04-14T01:40:02.659Z,8.64
2023-04-14T01:42:35.734Z,8.68
2023-04-14T01:45:16.886Z,8.69
2023-04-14T01:47:45.344Z,8.66
2023-04-14T01:50:13.044Z,8.39
2023-04-14T01:52:42.821Z,8.44
2023-04-14T01:55:10.730Z,8.48
2023-04-14T01:57:41.816Z,8.36
2023-04-14T02:00:10.549Z,8.43
2023-04-14T02:02:47.736Z,8.39
2023-04-14T02:05:17.188Z,8.35
2023-04-14T02:07:45.848Z,8.48
2023-04-14T02:10:15.950Z,8.47
2023-04-14T02:12:43.533Z,8.51
2023-04-14T02:15:13.680Z,8.59
2023-04-14T02:17:41.941Z,8.53
2023-04-14T02:20:09.733Z,8.61
2023-04-14T02:22:36.948Z,8.64
2023-04-14T02:25:04.350Z,8.57
2023-04-14T02:27:35.238Z,8.52
2023-04-14T02:30:08.232Z,8.51
2023-04-14T02:32:39.478Z,8.54
2023-04-14T02:35:10.567Z,8.53
2023-04-14T02:37:40.151Z,8.54
2023-04-14T02:40:27.779Z,8.59
2023-04-14T02:43:07.863Z,8.74
2023-04-14T02:45:36.820Z,8.66
2023-04-14T02:48:07.705Z,8.63
2023-04-14T02:50:35.477Z,8.44
2023-04-14T02:53:17.399Z,8.58
2023-04-14T02:55:46.707Z,8.39
2023-04-14T02:58:15.819Z,8.52
2023-04-14T03:00:43.252Z,8.43
2023-04-14T03:03:12.796Z,8.40
2023-04-14T03:05:43.137Z,8.41
2023-04-14T03:08:11.352Z,8.43
2023-04-14T03:10:41.303Z,8.40
2023-04-14T03:13:09.742Z,8.36
2023-04-14T03:15:37.865Z,8.40
2023-04-14T03:18:06.383Z,8.59
2023-04-14T03:20:34.933Z,8.56
2023-04-14T03:23:06.428Z,8.55
2023-04-14T03:25:42.303Z,8.48
2023-04-14T03:28:19.424Z,8.48
2023-04-14T03:30:50.900Z,8.43
2023-04-14T03:33:20.683Z,8.32
2023-04-14T03:35:50.050Z,8.40
2023-04-14T03:38:17.805Z,8.46
2023-04-14T03:40:47.840Z,8.44
2023-04-14T03:43:22.457Z,8.31
2023-04-14T03:45:56.918Z,8.27
2023-04-14T03:48:26.359Z,8.23
2023-04-14T03:50:54.956Z,8.12
2023-04-14T03:53:22.064Z,8.16
2023-04-14T03:55:51.475Z,8.20
2023-04-14T03:58:20.061Z,8.36
2023-04-14T04:00:49.247Z,8.40
2023-04-14T04:03:18.010Z,8.38
2023-04-14T04:05:45.447Z,8.36
2023-04-14T04:08:12.718Z,8.47
2023-04-14T04:10:40.153Z,8.37
2023-04-14T04:13:09.097Z,8.39
2023-04-14T04:15:37.812Z,8.28
2023-04-14T04:18:06.819Z,8.28
2023-04-14T04:20:36.207Z,8.32
2023-04-14T04:23:04.126Z,8.36
2023-04-14T04:25:33.029Z,8.31
2023-04-14T04:28:06.856Z,8.23
2023-04-14T04:30:35.305Z,8.26
2023-04-14T04:33:03.721Z,8.25
2023-04-14T04:35:31.722Z,8.21
2023-04-14T04:38:00.898Z,8.19
2023-04-14T04:40:35.200Z,8.30
2023-04-14T04:43:02.344Z,8.35
2023-04-14T04:45:42.276Z,8.36
2023-04-14T04:48:09.549Z,8.41
2023-04-14T04:50:36.769Z,8.42
2023-04-14T04:53:03.995Z,8.37
2023-04-14T04:55:31.028Z,8.35
2023-04-14T04:57:58.122Z,8.42
2023-04-14T05:00:26.607Z,8.43
2023-04-14T05:02:53.761Z,8.43
2023-04-14T05:05:21.056Z,8.34
2023-04-14T05:07:48.256Z,8.40
2023-04-14T05:10:15.320Z,8.39
2023-04-14T05:12:42.331Z,8.47
2023-04-14T05:15:09.784Z,8.45
2023-04-14T05:17:37.252Z,8.49
2023-04-14T05:20:05.709Z,8.40
2023-04-14T05:22:32.946Z,8.34
2023-04-14T05:25:00.046Z,8.32
2023-04-14T05:27:27.148Z,8.35
2023-04-14T05:29:54.205Z,8.40
2023-04-14T05:32:22.321Z,8.40
2023-04-14T05:34:49.632Z,8.42
2023-04-14T05:37:17.876Z,8.50
2023-04-14T05:39:45.131Z,8.69
2023-04-14T05:42:12.210Z,8.77
2023-04-14T05:44:39.347Z,8.91
2023-04-14T05:47:06.738Z,9.03
2023-04-14T05:49:33.896Z,9.13
2023-04-14T05:52:01.200Z,9.17
2023-04-14T05:54:28.265Z,9.19
2023-04-14T05:56:56.439Z,9.29
2023-04-14T05:59:23.503Z,9.27
2023-04-14T06:01:50.809Z,9.21
2023-04-14T06:04:18.355Z,9.22
2023-04-14T06:06:45.695Z,9.32
2023-04-14T06:09:12.737Z,9.39
2023-04-14T06:11:40.409Z,9.40
2023-04-14T06:14:07.828Z,9.42
2023-04-14T06:16:34.950Z,9.42
2023-04-14T06:19:02.348Z,9.47
2023-04-14T06:21:29.596Z,9.63
2023-04-14T06:23:56.706Z,9.56
2023-04-14T06:26:23.912Z,9.54
2023-04-14T06:28:50.993Z,9.57
2023-04-14T06:31:18.046Z,9.53
2023-04-14T06:33:45.094Z,9.48
2023-04-14T06:36:13.209Z,9.64
2023-04-14T06:38:40.347Z,9.69
2023-04-14T06:41:07.385Z,9.81
2023-04-14T06:43:34.414Z,9.82
2023-04-14T06:46:01.852Z,9.75
2023-04-14T06:48:28.968Z,9.79
2023-04-14T06:50:56.505Z,9.83
2023-04-14T06:53:23.825Z,9.80
2023-04-14T06:55:59.526Z,9.93
2023-04-14T06:58:27.714Z,10.16
2023-04-14T07:01:04.026Z,10.26
2023-04-14T07:03:31.372Z,10.27
2023-04-14T07:06:05.302Z,10.25
2023-04-14T07:08:33.019Z,10.31
2023-04-14T07:11:02.359Z,10.32
2023-04-14T07:13:29.651Z,10.37
2023-04-14T07:15:56.759Z,10.68
2023-04-14T07:18:23.928Z,10.86
2023-04-14T07:20:51.766Z,10.96
2023-04-14T07:23:18.917Z,10.89
2023-04-14T07:25:52.718Z,10.74
2023-04-14T07:28:20.641Z,10.89
2023-04-14T07:30:48.299Z,10.97
2023-04-14T07:33:19.085Z,11.04
2023-04-14T07:36:00.696Z,11.01
2023-04-14T07:38:29.738Z,11.23
2023-04-14T07:40:57.577Z,11.47
2023-04-14T07:43:24.768Z,11.87
2023-04-14T07:45:52.548Z,12.04
2023-04-14T07:48:21.427Z,12.12
2023-04-14T07:50:50.020Z,12.34
2023-04-14T07:53:17.201Z,12.63
2023-04-14T07:55:44.318Z,13.33
2023-04-14T07:58:15.273Z,13.65
2023-04-14T08:00:43.038Z,13.23
2023-04-14T08:03:10.323Z,12.85
2023-04-14T08:05:37.889Z,13.70
2023-04-14T08:08:05.220Z,14.29
2023-04-14T08:10:32.376Z,14.49
2023-04-14T08:13:01.021Z,14.70
2023-04-14T08:15:29.487Z,14.45
2023-04-14T08:17:57.076Z,14.24
2023-04-14T08:20:24.218Z,13.69
2023-04-14T08:22:51.438Z,14.07
2023-04-14T08:25:18.512Z,13.41
2023-04-14T08:27:45.694Z,12.87
2023-04-14T08:30:12.928Z,13.33
2023-04-14T08:32:40.052Z,13.85
2023-04-14T08:35:38.739Z,14.40
2023-04-14T08:37:54.292Z,13.68
2023-04-14T08:40:25.294Z,14.02
2023-04-14T08:42:52.334Z,13.59
2023-04-14T08:45:19.972Z,13.56
2023-04-14T08:47:48.016Z,12.92
2023-04-14T08:50:18.239Z,13.29
2023-04-14T08:52:46.106Z,13.40
2023-04-14T08:55:13.678Z,13.27
2023-04-14T08:57:43.568Z,13.29
2023-04-14T09:00:11.246Z,13.66
2023-04-14T09:02:40.313Z,13.83
2023-04-14T09:05:08.086Z,13.93
2023-04-14T09:07:35.977Z,14.41
2023-04-14T09:10:03.375Z,14.93
2023-04-14T09:12:30.527Z,14.28
2023-04-14T09:14:58.803Z,14.33
2023-04-14T09:17:27.567Z,14.22
2023-04-14T09:20:38.635Z,14.07
2023-04-14T09:22:42.011Z,14.16
2023-04-14T09:25:09.558Z,13.86
2023-04-14T09:27:36.992Z,13.75
2023-04-14T09:30:04.325Z,13.69
2023-04-14T09:32:31.494Z,13.88
2023-04-14T09:34:58.810Z,14.03
2023-04-14T09:37:26.149Z,13.87
2023-04-14T09:39:55.322Z,13.86
2023-04-14T09:42:37.381Z,13.74
2023-04-14T09:45:05.622Z,13.63
2023-04-14T09:47:32.896Z,13.77
2023-04-14T09:50:01.050Z,13.50
2023-04-14T09:52:38.257Z,13.29
2023-04-14T09:55:08.191Z,13.31
2023-04-14T09:57:37.420Z,13.37
2023-04-14T10:00:24.525Z,13.36
2023-04-14T10:02:56.368Z,13.17
2023-04-14T10:05:27.387Z,13.35
2023-04-14T10:07:54.960Z,13.36
2023-04-14T10:10:22.718Z,13.34
2023-04-14T10:12:52.691Z,13.34
2023-04-14T10:15:19.810Z,13.24
2023-04-14T10:17:47.259Z,13.63
2023-04-14T10:20:15.495Z,13.92
2023-04-14T10:22:42.973Z,13.90
2023-04-14T10:25:10.701Z,13.87
2023-04-14T10:27:38.249Z,14.09
2023-04-14T10:30:06.438Z,14.23
2023-04-14T10:32:34.929Z,14.41
2023-04-14T10:35:06.429Z,14.50
2023-04-14T10:37:34.934Z,14.44
2023-04-14T10:40:23.186Z,14.80
2023-04-14T10:42:57.261Z,15.24
2023-04-14T10:45:24.486Z,15.79
2023-04-14T10:47:51.750Z,16.27
2023-04-14T10:50:22.339Z,17.15
2023-04-14T10:52:50.189Z,17.44
2023-04-14T10:55:17.835Z,17.50
2023-04-14T10:57:46.154Z,17.54
2023-04-14T11:00:13.429Z,18.09
2023-04-14T11:02:53.848Z,18.77
2023-04-14T11:05:21.564Z,18.43
2023-04-14T11:07:50.263Z,18.87
2023-04-14T11:10:17.566Z,18.85
2023-04-14T11:12:46.012Z,18.80
2023-04-14T11:15:13.423Z,18.99
2023-04-14T11:17:41.621Z,18.85
2023-04-14T11:20:15.713Z,19.05
2023-04-14T11:22:46.309Z,18.93
2023-04-14T11:25:14.485Z,19.62
2023-04-14T11:27:42.897Z,18.74
2023-04-14T11:30:14.327Z,18.87
2023-04-14T11:32:51.748Z,18.88
2023-04-14T11:35:19.684Z,19.28
2023-04-14T11:37:46.921Z,19.52
2023-04-14T11:40:16.460Z,19.47
2023-04-14T11:42:44.573Z,19.59
2023-04-14T11:45:13.582Z,19.54
2023-04-14T11:47:41.212Z,19.39
2023-04-14T11:50:08.635Z,19.58
2023-04-14T11:52:35.912Z,19.73
2023-04-14T11:55:03.124Z,19.34
2023-04-14T11:57:30.231Z,19.30
2023-04-14T11:59:57.397Z,19.50
2023-04-14T12:02:24.610Z,19.48
2023-04-14T12:04:52.077Z,19.65
2023-04-14T12:07:20.278Z,19.69
2023-04-14T12:09:49.047Z,19.05
2023-04-14T12:12:17.320Z,19.54
2023-04-14T12:14:48.445Z,19.40
2023-04-14T12:17:16.863Z,19.44
2023-04-14T12:19:45.081Z,19.60
2023-04-14T12:22:12.696Z,19.58
2023-04-14T12:24:40.977Z,19.71
2023-04-14T12:27:09.808Z,19.60
2023-04-14T12:29:37.060Z,19.84
2023-04-14T12:32:14.205Z,19.75
2023-04-14T12:34:41.580Z,19.67
2023-04-14T12:37:09.841Z,19.46
2023-04-14T12:39:50.640Z,19.88
2023-04-14T12:42:18.260Z,19.67
2023-04-14T12:45:01.331Z,19.43
2023-04-14T12:47:32.658Z,19.28
2023-04-14T12:50:19.996Z,19.39
2023-04-14T12:52:47.639Z,19.13
2023-04-14T12:55:24.958Z,19.20
2023-04-14T12:57:53.253Z,19.29
2023-04-14T13:00:24.624Z,19.36
2023-04-14T13:02:51.940Z,19.28
2023-04-14T13:05:19.405Z,19.72
2023-04-14T13:07:46.569Z,19.40
2023-04-14T13:10:14.056Z,19.61
2023-04-14T13:12:41.983Z,19.55
2023-04-14T13:15:09.311Z,19.51
2023-04-14T13:17:56.456Z,19.62
2023-04-14T13:20:23.579Z,19.37
2023-04-14T13:22:51.037Z,19.20
2023-04-14T13:25:18.111Z,19.51
2023-04-14T13:27:45.321Z,19.72
2023-04-14T13:30:12.555Z,19.34
2023-04-14T13:32:39.646Z,18.93
2023-04-14T13:35:06.972Z,18.86
2023-04-14T13:37:34.084Z,18.84
2023-04-14T13:40:01.590Z,18.75
2023-04-14T13:42:28.722Z,19.00
2023-04-14T13:44:55.794Z,19.31
2023-04-14T13:47:23.003Z,19.38
2023-04-14T13:49:50.122Z,19.22
2023-04-14T13:52:17.149Z,18.96
2023-04-14T13:54:44.177Z,19.01
2023-04-14T13:57:11.273Z,19.20
2023-04-14T13:59:38.369Z,19.37
2023-04-14T14:02:06.535Z,19.58
2023-04-14T14:04:36.364Z,19.45
2023-04-14T14:07:03.560Z,19.52
2023-04-14T14:09:30.708Z,19.45
2023-04-14T14:11:57.916Z,19.45
2023-04-14T14:14:25.004Z,19.58
2023-04-14T14:16:52.132Z,19.58
2023-04-14T14:19:19.337Z,19.77
2023-04-14T14:21:46.431Z,19.78
2023-04-14T14:24:14.007Z,19.61
2023-04-14T14:26:41.104Z,19.50
2023-04-14T14:29:08.153Z,19.61
2023-04-14T14:31:35.498Z,19.58
2023-04-14T14:34:02.758Z,19.84
2023-04-14T14:36:30.419Z,19.74
2023-04-14T14:38:57.599Z,19.58
2023-04-14T14:41:24.651Z,19.82
2023-04-14T14:43:51.808Z,19.77
2023-04-14T14:46:18.993Z,19.88
2023-04-14T14:48:46.837Z,19.60
2023-04-14T14:51:13.860Z,19.42
2023-04-14T14:53:40.856Z,19.49
2023-04-14T14:56:07.953Z,19.31
2023-04-14T14:58:35.039Z,19.35
2023-04-14T15:01:02.079Z,19.37
2023-04-14T15:03:29.382Z,19.17
2023-04-14T15:05:56.719Z,19.32
2023-04-14T15:08:24.023Z,19.22
2023-04-14T15:10:51.779Z,19.40
2023-04-14T15:13:18.922Z,19.44
2023-04-14T15:15:46.333Z,19.32
2023-04-14T15:18:13.558Z,19.30
2023-04-14T15:20:41.299Z,19.38
2023-04-14T15:23:08.646Z,19.28
2023-04-14T15:25:35.809Z,19.27
2023-04-14T15:28:03.009Z,19.28
2023-04-14T15:30:30.032Z,19.35
2023-04-14T15:32:58.181Z,19.38
2023-04-14T15:35:26.198Z,19.49
2023-04-14T15:37:53.313Z,19.30
2023-04-14T15:40:20.511Z,19.18
2023-04-14T15:42:47.713Z,18.71
2023-04-14T15:45:14.841Z,18.63
2023-04-14T15:47:42.047Z,18.41
2023-04-14T15:50:10.214Z,18.41
2023-04-14T15:52:38.786Z,18.29
2023-04-14T15:55:06.314Z,18.21
2023-04-14T15:57:33.435Z,18.14
2023-04-14T16:00:02.069Z,18.15
2023-04-14T16:02:29.375Z,18.08
2023-04-14T16:04:58.069Z,18.04
2023-04-14T16:07:27.192Z,17.99
2023-04-14T16:09:54.307Z,17.93
2023-04-14T16:12:21.360Z,17.93
2023-04-14T16:14:48.570Z,17.97
2023-04-14T16:17:15.644Z,17.91
2023-04-14T16:19:42.740Z,17.82
2023-04-14T16:22:09.882Z,17.64
2023-04-14T16:24:37.470Z,17.45
2023-04-14T16:27:04.560Z,17.34
2023-04-14T16:29:31.864Z,17.22
2023-04-14T16:31:58.906Z,17.32
2023-04-14T16:34:26.227Z,17.27
2023-04-14T16:36:53.256Z,17.17
2023-04-14T16:39:22.139Z,17.24
2023-04-14T16:41:49.169Z,17.08
2023-04-14T16:44:16.425Z,16.96
2023-04-14T16:46:43.658Z,16.97
2023-04-14T16:49:10.982Z,16.75
2023-04-14T16:51:38.505Z,16.51
2023-04-14T16:54:06.141Z,16.24
2023-04-14T16:56:36.218Z,16.22
2023-04-14T16:59:04.507Z,15.99
2023-04-14T17:01:31.784Z,15.82
2023-04-14T17:03:59.264Z,15.85
2023-04-14T17:06:27.111Z,15.97
2023-04-14T17:08:54.136Z,15.79
2023-04-14T17:11:21.606Z,15.67
2023-04-14T17:13:48.708Z,15.45
2023-04-14T17:16:15.846Z,15.54
2023-04-14T17:18:44.008Z,15.39
2023-04-14T17:21:11.170Z,15.45
2023-04-14T17:23:38.349Z,15.46
2023-04-14T17:26:05.855Z,15.34
2023-04-14T17:28:34.398Z,15.43
2023-04-14T17:31:02.073Z,15.38
2023-04-14T17:33:29.275Z,15.35
2023-04-14T17:35:57.078Z,15.15
2023-04-14T17:38:24.282Z,15.12
2023-04-14T17:40:53.343Z,15.15
2023-04-14T17:43:20.983Z,15.08
2023-04-14T17:45:50.413Z,15.06
2023-04-14T17:48:18.046Z,15.05
2023-04-14T17:50:46.354Z,15.06
2023-04-14T17:53:15.509Z,14.96
2023-04-14T17:55:43.415Z,14.90
2023-04-14T17:58:10.680Z,14.82
2023-04-14T18:00:37.998Z,14.77
2023-04-14T18:03:05.209Z,14.79
2023-04-14T18:05:32.376Z,14.69
2023-04-14T18:07:59.495Z,14.58
2023-04-14T18:10:26.999Z,14.54
2023-04-14T18:12:54.073Z,14.74
2023-04-14T18:15:21.616Z,14.61
2023-04-14T18:17:48.934Z,14.54
2023-04-14T18:20:22.128Z,14.47
2023-04-14T18:22:49.726Z,14.70
2023-04-14T18:25:19.269Z,14.56
2023-04-14T18:30:19.436Z,14.76
2023-04-14T18:32:56.845Z,14.55
2023-04-14T18:35:25.428Z,14.32
2023-04-14T18:37:53.250Z,14.17
2023-04-14T18:40:22.527Z,14.08
2023-04-14T18:42:54.816Z,14.14
2023-04-14T18:45:22.087Z,14.24
2023-04-14T18:47:49.905Z,14.40
2023-04-14T18:50:17.094Z,14.65
2023-04-14T18:52:44.211Z,14.17
2023-04-14T18:55:11.560Z,13.97
2023-04-14T18:57:39.164Z,13.93
2023-04-14T19:00:06.582Z,13.76
2023-04-14T19:02:34.498Z,13.85
2023-04-14T19:05:02.411Z,13.79
2023-04-14T19:07:29.722Z,13.72
2023-04-14T19:09:56.861Z,13.84
2023-04-14T19:12:28.603Z,13.77
2023-04-14T19:14:56.105Z,13.78
2023-04-14T19:17:23.249Z,13.68
2023-04-14T19:19:50.503Z,13.54
2023-04-14T19:22:17.908Z,13.49
2023-04-14T19:24:45.030Z,13.54
2023-04-14T19:27:12.122Z,13.54
2023-04-14T19:29:39.167Z,13.61
2023-04-14T19:32:06.254Z,13.35
2023-04-14T19:34:33.817Z,13.29
2023-04-14T19:37:00.913Z,13.08
2023-04-14T19:39:28.540Z,13.13
2023-04-14T19:41:56.415Z,13.03
2023-04-14T19:44:23.891Z,12.91
2023-04-14T19:46:51.062Z,12.84
2023-04-14T19:49:18.179Z,12.90
2023-04-14T19:51:45.515Z,12.92
2023-04-14T19:54:12.543Z,12.82
2023-04-14T19:56:39.695Z,12.72
2023-04-14T19:59:08.096Z,12.68
2023-04-14T20:01:35.351Z,12.54
2023-04-14T20:04:06.912Z,12.51
2023-04-14T20:06:39.492Z,12.49
2023-04-14T20:09:06.639Z,12.59
2023-04-14T20:11:33.729Z,12.51
2023-04-14T20:14:00.861Z,12.38
2023-04-14T20:16:27.950Z,12.44
2023-04-14T20:18:55.472Z,12.33
2023-04-14T20:21:22.630Z,12.25
2023-04-14T20:23:49.902Z,12.27
2023-04-14T20:26:17.308Z,12.28
2023-04-14T20:28:45.580Z,12.19
2023-04-14T20:31:13.516Z,12.17
2023-04-14T20:33:40.827Z,12.41
2023-04-14T20:36:08.086Z,12.26
2023-04-14T20:38:35.482Z,12.31
2023-04-14T20:41:02.610Z,12.26
2023-04-14T20:43:34.220Z,12.18
2023-04-14T20:46:01.504Z,12.30
2023-04-14T20:48:30.369Z,12.26
2023-04-14T20:50:57.848Z,12.28
2023-04-14T20:53:27.076Z,12.27
2023-04-14T20:55:54.973Z,12.32
2023-04-14T20:58:22.041Z,12.27
2023-04-14T21:00:49.325Z,12.23
2023-04-14T21:03:17.159Z,12.31
2023-04-14T21:05:44.345Z,12.26
2023-04-14T21:08:12.579Z,12.17
2023-04-14T21:11:14.824Z,12.22
2023-04-14T21:15:25.358Z,12.20
2023-04-14T21:16:15.684Z,12.22
2023-04-14T21:18:42.778Z,12.08
2023-04-14T21:21:11.397Z,12.11
2023-04-14T21:23:38.471Z,12.15
2023-04-14T21:26:05.498Z,12.00
2023-04-14T21:28:32.663Z,12.08
2023-04-14T21:31:01.539Z,12.07
2023-04-14T21:33:28.878Z,12.03
2023-04-14T21:35:56.359Z,11.98
2023-04-14T21:38:23.965Z,11.96
2023-04-14T21:40:51.568Z,11.90
2023-04-14T21:43:18.648Z,11.89
2023-04-14T21:45:45.845Z,11.97
2023-04-14T21:48:13.004Z,11.89
2023-04-14T21:50:40.107Z,11.85
2023-04-14T21:53:07.200Z,11.88
2023-04-14T21:55:35.154Z,11.80
2023-04-14T21:58:03.707Z,11.81
2023-04-14T22:00:31.037Z,11.60
2023-04-14T22:02:58.204Z,11.59
2023-04-14T22:05:25.399Z,11.59
2023-04-14T22:07:53.765Z,11.46
2023-04-14T22:10:21.789Z,11.36
2023-04-14T22:12:49.087Z,11.39
2023-04-14T22:15:16.838Z,11.48
2023-04-14T22:17:44.815Z,11.40
2023-04-14T22:20:12.124Z,11.27
2023-04-14T22:22:39.202Z,11.32
2023-04-14T22:25:06.707Z,11.29
2023-04-14T22:27:34.451Z,11.34
2023-04-14T22:30:02.590Z,11.29
2023-04-14T22:32:29.963Z,11.42
2023-04-14T22:34:57.148Z,11.35
2023-04-14T22:37:24.203Z,11.32
2023-04-14T22:39:51.497Z,11.26
2023-04-14T22:42:18.634Z,11.25
2023-04-14T22:44:47.992Z,11.21
2023-04-14T22:47:15.557Z,11.10
2023-04-14T22:49:42.664Z,11.24
2023-04-14T22:52:09.712Z,11.23
2023-04-14T22:54:36.820Z,11.24
2023-04-14T22:57:04.127Z,11.21
2023-04-14T22:59:32.062Z,11.15
2023-04-14T23:01:59.319Z,11.13
2023-04-14T23:04:26.778Z,11.12
2023-04-14T23:06:53.928Z,11.09
2023-04-14T23:09:21.211Z,11.00
2023-04-14T23:11:48.496Z,11.09
2023-04-14T23:14:15.706Z,11.09
2023-04-14T23:16:43.805Z,11.11
2023-04-14T23:19:10.924Z,11.09
2023-04-14T23:21:38.876Z,11.08
2023-04-14T23:24:06.601Z,11.07
2023-04-14T23:26:33.625Z,11.04
2023-04-14T23:29:01.524Z,11.03
2023-04-14T23:31:28.909Z,11.13
2023-04-14T23:33:56.249Z,11.11
2023-04-14T23:36:23.345Z,11.08
2023-04-14T23:38:50.408Z,10.92
2023-04-14T23:41:18.084Z,10.78
2023-04-14T23:43:45.857Z,10.77
2023-04-14T23:46:12.956Z,10.67
2023-04-14T23:48:39.992Z,10.59
2023-04-14T23:51:14.790Z,10.48
2023-04-14T23:53:48.069Z,10.57
2023-04-14T23:56:15.142Z,10.45
2023-04-14T23:58:43.068Z,10.48
